Time;durP1;ratioP1;P1;durP2;ratioP2;P2;SDS_P1;SDS_P2;PMS_P1;PMS_P2;Temp;Humidity;BMP_temperature;BMP_pressure;BME280_temperature;BME280_humidity;BME280_pressure;Samples;Min_cycle;Max_cycle;Signal;HPM_P1;HPM_P2
2022/12/19 00:03:17;;;;;;;26.53;17.83;;;;;;;-1.12;58.75;99011.22;8314955;28;20293;-64
2022/12/19 00:07:20;;;;;;;24.60;17.67;;;;;;;-1.34;60.36;99015.03;8314768;28;20237;-64
2022/12/19 00:11:23;;;;;;;25.33;18.23;;;;;;;-1.53;59.77;99029.06;8314371;28;20226;-64
2022/12/19 00:15:26;;;;;;;30.63;18.70;;;;;;;-1.66;60.99;99005.91;8314115;28;20400;-64
2022/12/19 00:19:30;;;;;;;26.67;18.60;;;;;;;-1.31;59.92;98977.84;8313411;28;20452;-64
2022/12/19 00:23:34;;;;;;;27.17;18.30;;;;;;;-1.41;60.08;98953.06;8313678;28;20526;-64
2022/12/19 00:27:37;;;;;;;26.17;18.37;;;;;;;-1.38;60.43;99003.97;8313826;28;20230;-65
2022/12/19 00:31:40;;;;;;;28.60;19.77;;;;;;;-1.15;59.59;98986.59;8313220;28;20528;-65
2022/12/19 00:35:44;;;;;;;25.93;18.33;;;;;;;-1.86;59.83;98946.25;8313932;28;20306;-65
2022/12/19 00:39:47;;;;;;;27.70;18.53;;;;;;;-1.06;59.74;99006.28;8313217;28;20506;-65
2022/12/19 00:43:52;;;;;;;29.37;19.83;;;;;;;-1.31;59.72;98999.88;8313087;28;20238;-65
2022/12/19 00:47:55;;;;;;;30.23;20.13;;;;;;;-1.40;60.15;98991.22;8312733;28;20248;-66
2022/12/19 00:52:00;;;;;;;27.83;18.87;;;;;;;-1.21;59.10;99001.75;8313532;28;20242;-66
2022/12/19 00:56:03;;;;;;;31.90;19.93;;;;;;;-2.00;60.97;98996.72;8312959;28;20229;-66
2022/12/19 01:00:07;;;;;;;29.03;19.77;;;;;;;-1.94;59.83;98915.63;8313181;28;20560;-66
2022/12/19 01:04:12;;;;;;;31.63;20.37;;;;;;;-1.29;58.93;99001.59;8312850;28;20230;-65
2022/12/19 01:08:34;;;;;;;29.70;20.40;;;;;;;-1.09;59.07;98989.25;8312460;28;20469;-65
2022/12/19 01:12:46;;;;;;;28.30;18.50;;;;;;;-1.09;58.99;98966.38;8312182;28;20226;-65
2022/12/19 01:16:49;;;;;;;26.40;19.10;;;;;;;-1.36;58.49;98979.44;8312581;28;20404;-65
2022/12/19 01:20:52;;;;;;;29.37;20.17;;;;;;;-1.23;59.68;98991.53;8312319;28;20234;-65
2022/12/19 01:24:56;;;;;;;30.53;19.50;;;;;;;-1.21;59.20;98986.50;8311874;28;20529;-65
2022/12/19 01:28:59;;;;;;;28.90;20.10;;;;;;;-1.10;58.33;98985.00;8311676;28;20257;-65
2022/12/19 01:33:02;;;;;;;27.80;19.33;;;;;;;-1.03;58.67;98986.84;8311669;28;20241;-65
2022/12/19 01:37:05;;;;;;;28.77;19.97;;;;;;;-1.58;60.09;98983.22;8311580;28;20243;-65
2022/12/19 01:41:10;;;;;;;30.00;19.23;;;;;;;-1.71;60.97;98977.03;8311292;28;20246;-65
2022/12/19 01:45:30;;;;;;;30.43;20.70;;;;;;;-1.44;59.67;98980.97;8311345;28;20229;-66
2022/12/19 01:49:37;;;;;;;28.47;19.37;;;;;;;-1.77;61.04;98979.47;8311727;28;20305;-65
2022/12/19 01:53:43;;;;;;;30.17;20.30;;;;;;;-1.77;61.46;98971.84;8311661;28;20272;-65
2022/12/19 01:57:53;;;;;;;28.07;19.90;;;;;;;-1.28;59.54;98982.13;8311747;28;20230;-65
2022/12/19 02:02:00;;;;;;;30.53;19.93;;;;;;;-1.40;59.50;98990.38;8311080;28;20230;-65
2022/12/19 02:06:04;;;;;;;28.77;19.23;;;;;;;-1.64;60.63;98978.88;8311345;28;20237;-65
2022/12/19 02:10:07;;;;;;;30.20;19.47;;;;;;;-1.15;59.48;98985.75;8311171;28;20253;-67
2022/12/19 02:14:14;;;;;;;27.93;19.47;;;;;;;-1.34;58.70;98984.53;8310991;28;20238;-65
2022/12/19 02:18:25;;;;;;;30.07;20.03;;;;;;;-1.77;61.13;98972.69;8311595;28;20253;-65
2022/12/19 02:22:39;;;;;;;33.03;21.27;;;;;;;-1.27;58.96;98960.97;8311717;28;20455;-65
2022/12/19 02:27:00;;;;;;;29.47;20.17;;;;;;;-1.08;58.49;98987.59;8311792;28;20269;-65
2022/12/19 02:31:09;;;;;;;28.53;19.17;;;;;;;-0.80;57.50;98992.34;8310754;28;20232;-65
2022/12/19 02:35:26;;;;;;;28.63;19.70;;;;;;;-1.49;59.88;98964.78;8311373;28;20230;-65
2022/12/19 02:39:34;;;;;;;30.23;20.13;;;;;;;-0.84;58.28;98999.88;8311116;28;20231;-65
2022/12/19 02:43:40;;;;;;;31.93;20.37;;;;;;;-1.20;58.77;99003.44;8317384;28;20528;-65
2022/12/19 02:47:44;;;;;;;29.93;19.77;;;;;;;-0.75;58.48;98992.41;8317329;28;20222;-65
2022/12/19 02:51:47;;;;;;;31.00;20.67;;;;;;;-1.63;60.11;99003.44;8317437;28;20233;-65
2022/12/19 02:55:56;;;;;;;32.30;20.17;;;;;;;-0.84;58.94;98979.53;8317480;28;20257;-65
2022/12/19 03:00:04;;;;;;;29.33;20.10;;;;;;;-0.58;57.80;99000.34;8316863;28;20239;-65
2022/12/19 03:04:16;;;;;;;34.40;22.23;;;;;;;-1.65;60.74;98958.53;8318084;28;20230;-66
2022/12/19 03:08:23;;;;;;;33.53;22.97;;;;;;;-1.59;61.99;98976.44;8316839;28;20301;-65
2022/12/19 03:12:30;;;;;;;32.73;21.83;;;;;;;-1.22;59.51;98956.81;8316672;28;20223;-65
2022/12/19 03:16:34;;;;;;;33.07;22.47;;;;;;;-1.55;61.27;98950.25;8317005;28;20529;-65
2022/12/19 03:26:04;;;;;;;35.37;22.37;;;;;;;-1.26;60.45;98967.75;8315753;28;20228;-65
2022/12/19 03:30:09;;;;;;;33.50;22.20;;;;;;;-1.63;61.59;98934.88;8315951;28;20532;-66
2022/12/19 03:34:15;;;;;;;33.93;21.80;;;;;;;-1.21;60.59;98967.00;8315827;28;20240;-65
2022/12/19 03:38:19;;;;;;;36.00;22.90;;;;;;;-1.14;60.33;98956.94;8315856;28;20422;-65
2022/12/19 03:46:52;;;;;;;34.57;23.13;;;;;;;-1.21;60.63;98928.03;8315797;28;20226;-66
2022/12/19 03:51:02;;;;;;;35.23;22.70;;;;;;;-1.50;61.49;98935.97;8314259;28;20241;-65
2022/12/19 03:55:08;;;;;;;32.07;21.17;;;;;;;-1.18;60.84;98889.97;8314312;28;20230;-65
2022/12/19 03:59:24;;;;;;;34.03;21.97;;;;;;;-1.01;60.87;98905.47;8314757;28;20229;-65
2022/12/19 04:03:27;;;;;;;33.07;22.07;;;;;;;-1.11;61.49;98873.13;8314935;28;20497;-65
2022/12/19 04:07:31;;;;;;;35.87;21.90;;;;;;;-0.89;60.94;98894.69;8314470;28;20475;-65
2022/12/19 04:11:38;;;;;;;35.63;23.27;;;;;;;-0.76;59.68;98937.28;8314486;28;20324;-65
2022/12/19 04:15:49;;;;;;;35.57;22.67;;;;;;;-0.65;60.89;98957.78;8314800;28;20242;-65
2022/12/19 04:20:01;;;;;;;35.23;22.27;;;;;;;-0.88;60.64;98952.34;8313842;28;20238;-66
2022/12/19 04:24:07;;;;;;;34.97;22.10;;;;;;;-1.38;62.63;98937.88;8314155;28;20235;-65
2022/12/19 04:28:14;;;;;;;33.23;21.83;;;;;;;-0.99;62.27;98947.03;8314030;28;20430;-65
2022/12/19 04:32:19;;;;;;;35.70;22.13;;;;;;;-1.09;62.59;98948.56;8314020;28;20226;-66
2022/12/19 04:36:22;;;;;;;34.43;22.63;;;;;;;-1.05;61.64;98909.69;8313872;28;20230;-65
2022/12/19 04:40:25;;;;;;;32.00;21.73;;;;;;;-0.93;61.85;98969.19;8313198;28;20235;-65
2022/12/19 04:44:28;;;;;;;35.47;21.83;;;;;;;-1.07;62.63;98926.56;8313404;28;20495;-65
2022/12/19 04:48:32;;;;;;;34.50;22.20;;;;;;;-1.26;62.23;98952.50;8313442;28;20337;-66
2022/12/19 04:52:34;;;;;;;37.20;23.50;;;;;;;-0.80;61.31;98943.13;8313149;28;20234;-65
2022/12/19 04:56:37;;;;;;;32.40;21.93;;;;;;;-0.81;61.22;98964.31;8313082;28;20222;-65
2022/12/19 05:00:40;;;;;;;36.03;23.10;;;;;;;-1.02;62.04;98941.94;8312647;28;20237;-65
2022/12/19 05:04:44;;;;;;;34.17;22.50;;;;;;;-0.72;61.19;98933.09;8312501;28;20561;-65
2022/12/19 05:08:47;;;;;;;34.03;22.27;;;;;;;-0.72;61.45;98933.97;8312785;28;20237;-65
2022/12/19 05:12:50;;;;;;;35.60;22.17;;;;;;;-0.42;60.67;98922.53;8312497;28;20238;-65
2022/12/19 05:16:52;;;;;;;38.53;23.73;;;;;;;-0.85;61.88;98927.81;8311754;28;20528;-66
2022/12/19 05:21:05;;;;;;;38.20;23.83;;;;;;;-1.34;63.30;98918.47;8312531;28;20234;-65
2022/12/19 05:25:09;;;;;;;36.47;22.93;;;;;;;-1.40;63.94;98955.63;8312242;28;20412;-66
2022/12/19 05:29:11;;;;;;;35.90;23.23;;;;;;;-0.65;60.89;98952.72;8312031;28;20397;-66
2022/12/19 05:33:14;;;;;;;37.97;23.27;;;;;;;-0.66;61.60;98941.69;8312181;28;20294;-66
2022/12/19 05:37:18;;;;;;;37.37;22.73;;;;;;;0.03;59.43;98941.00;8311779;28;20249;-67
2022/12/19 05:41:22;;;;;;;39.17;23.83;;;;;;;-0.41;61.42;98949.72;8311789;28;20253;-65
2022/12/19 05:45:25;;;;;;;37.53;24.17;;;;;;;-0.85;62.43;98924.41;8311545;28;20229;-65
2022/12/19 05:49:28;;;;;;;37.30;23.70;;;;;;;-0.29;61.04;98938.84;8311763;28;20438;-65
2022/12/19 05:53:32;;;;;;;36.83;24.27;;;;;;;-0.15;60.37;98924.63;8311669;28;20470;-65
2022/12/19 05:57:35;;;;;;;39.27;24.60;;;;;;;-0.48;60.34;98938.56;8311643;28;20226;-65
2022/12/19 06:01:38;;;;;;;38.90;24.63;;;;;;;-0.54;62.76;98930.00;8311587;28;20533;-65
2022/12/19 06:05:41;;;;;;;38.80;25.50;;;;;;;-0.55;62.36;98935.91;8311726;28;20552;-65
2022/12/19 06:09:46;;;;;;;43.17;26.57;;;;;;;-0.37;60.89;98913.28;8311620;28;20222;-65
2022/12/19 06:13:49;;;;;;;41.90;24.90;;;;;;;-0.53;61.93;98891.84;8311396;28;20233;-65
2022/12/19 06:17:53;;;;;;;41.33;26.70;;;;;;;-0.41;62.39;98936.97;8317296;28;20521;-65
2022/12/19 06:21:57;;;;;;;40.83;25.40;;;;;;;-0.57;62.42;98914.66;8317478;28;20284;-65
2022/12/19 06:26:03;;;;;;;41.17;26.20;;;;;;;-0.80;62.86;98889.72;8318231;28;20422;-65
2022/12/19 06:30:07;;;;;;;43.27;27.50;;;;;;;-0.57;62.26;98919.75;8319217;28;20234;-67
2022/12/19 06:34:10;;;;;;;46.77;28.60;;;;;;;-0.93;64.22;98921.75;8317478;28;20529;-65
2022/12/19 06:38:23;;;;;;;42.90;26.77;;;;;;;-0.86;64.96;98913.38;8318641;28;20345;-66
2022/12/19 06:42:27;;;;;;;42.97;26.20;;;;;;;-0.34;63.00;98900.63;8317247;28;20405;-65
2022/12/19 06:46:32;;;;;;;44.37;27.37;;;;;;;-0.96;65.74;98911.50;8317075;28;20218;-65
2022/12/19 06:50:35;;;;;;;42.17;26.57;;;;;;;-0.55;65.14;98915.53;8317401;28;20234;-65
2022/12/19 06:54:38;;;;;;;39.67;25.10;;;;;;;-0.33;64.24;98907.41;8317685;28;20233;-65
2022/12/19 06:58:43;;;;;;;43.37;26.53;;;;;;;-1.03;64.88;98882.59;8317373;28;20233;-66
2022/12/19 07:02:49;;;;;;;41.40;25.43;;;;;;;-0.88;65.28;98912.50;8317165;28;20532;-67
2022/12/19 07:06:52;;;;;;;42.47;26.07;;;;;;;-0.83;64.89;98907.50;8316624;28;20461;-66
2022/12/19 07:10:54;;;;;;;43.60;25.90;;;;;;;-0.86;65.36;98894.72;8316016;28;20293;-66
2022/12/19 07:14:59;;;;;;;40.87;25.83;;;;;;;-0.58;64.80;98906.19;8316559;28;20222;-65
2022/12/19 07:19:02;;;;;;;43.27;26.77;;;;;;;-0.88;66.17;98906.56;8316271;28;20233;-66
2022/12/19 07:23:05;;;;;;;44.30;27.63;;;;;;;-0.47;65.38;98898.72;8316216;28;20241;-66
2022/12/19 07:27:08;;;;;;;43.57;26.27;;;;;;;-0.20;64.41;98898.25;8315874;28;20230;-66
2022/12/19 07:31:12;;;;;;;44.17;25.73;;;;;;;-0.41;64.35;98874.19;8316288;28;20245;-66
2022/12/19 07:35:15;;;;;;;45.47;26.20;;;;;;;-0.55;65.99;98892.66;8315884;28;20230;-66
2022/12/19 07:39:18;;;;;;;45.60;27.77;;;;;;;-0.64;66.63;98895.91;8315804;28;20264;-66
2022/12/19 07:43:21;;;;;;;42.47;25.97;;;;;;;-0.40;66.03;98883.56;8315349;28;20236;-66
2022/12/19 07:47:26;;;;;;;41.37;25.57;;;;;;;0.12;64.59;98901.22;8315396;28;20375;-66
2022/12/19 07:51:29;;;;;;;46.87;27.10;;;;;;;-0.42;65.86;98889.44;8315495;28;20237;-65
2022/12/19 07:55:32;;;;;;;42.90;27.33;;;;;;;-0.38;65.90;98872.53;8315721;28;20293;-67
2022/12/19 07:59:36;;;;;;;43.40;27.63;;;;;;;-0.37;64.97;98892.06;8315757;28;20233;-65
2022/12/19 08:03:42;;;;;;;44.37;27.60;;;;;;;-0.13;64.75;98866.06;8315362;28;20553;-66
2022/12/19 08:07:45;;;;;;;46.53;27.00;;;;;;;-0.32;64.69;98872.63;8315292;28;20230;-66
2022/12/19 08:11:48;;;;;;;44.20;26.40;;;;;;;0.27;63.48;98902.25;8315003;28;20390;-67
2022/12/19 08:15:50;;;;;;;43.93;27.70;;;;;;;0.13;63.87;98910.59;8315261;28;20226;-67
2022/12/19 08:19:56;;;;;;;41.60;26.23;;;;;;;0.37;63.53;98893.88;8314659;28;20230;-68
2022/12/19 08:24:00;;;;;;;41.80;25.63;;;;;;;0.62;63.80;98909.44;8314404;28;20240;-65
2022/12/19 08:28:02;;;;;;;43.77;27.90;;;;;;;-0.12;65.52;98914.47;8314817;28;20230;-66
2022/12/19 08:32:05;;;;;;;42.80;26.00;;;;;;;0.63;63.11;98909.44;8314695;28;20245;-66
2022/12/19 08:36:11;;;;;;;43.93;27.13;;;;;;;0.14;64.92;98893.59;8315157;28;20238;-66
2022/12/19 08:40:14;;;;;;;43.67;26.60;;;;;;;0.07;65.24;98896.91;8313931;28;20230;-66
2022/12/19 08:44:17;;;;;;;44.53;27.43;;;;;;;-0.22;65.66;98885.50;8314912;28;20238;-65
2022/12/19 08:48:21;;;;;;;44.37;26.70;;;;;;;0.09;65.33;98888.44;8313745;28;20234;-66
2022/12/19 08:52:25;;;;;;;47.50;28.57;;;;;;;0.26;65.66;98900.53;8313888;28;20399;-66
2022/12/19 08:56:27;;;;;;;47.13;28.50;;;;;;;0.93;68.99;98880.84;8316663;28;20525;-65
2022/12/19 09:00:31;;;;;;;45.57;28.03;;;;;;;1.55;64.08;98894.91;8317408;28;20230;-67
2022/12/19 09:04:34;;;;;;;43.87;28.73;;;;;;;1.51;64.84;98892.34;8314413;28;20234;-66
2022/12/19 09:08:58;;;;;;;44.27;27.80;;;;;;;0.59;64.72;98894.94;8313525;28;20347;-67
2022/12/19 09:13:02;;;;;;;41.17;26.60;;;;;;;1.05;63.25;98881.75;8314266;28;20236;-67
2022/12/19 09:27:44;;;;;;;44.23;26.87;;;;;;;0.85;64.63;98886.72;8313682;28;20240;-67
2022/12/19 09:32:07;;;;;;;46.60;27.67;;;;;;;0.97;64.33;98892.78;8312741;28;20348;-68
2022/12/19 09:36:12;;;;;;;48.80;29.03;;;;;;;1.38;63.26;98888.00;8312991;28;20245;-68
2022/12/19 09:40:16;;;;;;;44.30;26.30;;;;;;;1.20;63.93;98896.34;8314883;28;20237;-67
2022/12/19 09:44:30;;;;;;;43.50;27.87;;;;;;;1.39;63.48;98916.09;8313373;28;20540;-67
2022/12/19 09:48:33;;;;;;;45.30;28.47;;;;;;;1.12;63.88;98911.59;8312700;28;20237;-68
2022/12/19 09:52:38;;;;;;;44.73;28.27;;;;;;;0.73;65.10;98895.94;8312631;28;20420;-67
2022/12/19 09:56:43;;;;;;;43.90;28.10;;;;;;;1.31;63.19;98885.41;8312729;28;20249;-67
2022/12/19 10:00:53;;;;;;;46.80;27.77;;;;;;;1.56;63.35;98909.41;8312378;28;20428;-68
2022/12/19 10:05:09;;;;;;;41.80;27.03;;;;;;;1.47;63.34;98888.06;8311963;28;20237;-68
2022/12/19 10:09:34;;;;;;;44.10;28.30;;;;;;;1.33;63.75;98873.50;8311901;28;20326;-68
2022/12/19 10:14:12;;;;;;;44.30;28.30;;;;;;;2.19;62.06;98882.47;8311349;28;20267;-68
2022/12/19 10:18:29;;;;;;;44.20;27.13;;;;;;;2.25;61.79;98879.97;8311864;28;20229;-67
2022/12/19 10:22:39;;;;;;;45.67;28.53;;;;;;;2.03;62.20;98887.53;8312072;28;20419;-68
2022/12/19 10:26:45;;;;;;;43.83;28.30;;;;;;;1.79;62.72;98879.72;8311938;28;20294;-67
2022/12/19 10:30:52;;;;;;;43.37;27.70;;;;;;;1.36;63.60;98878.63;8311732;28;20230;-68
2022/12/19 10:34:57;;;;;;;42.07;27.53;;;;;;;1.49;63.80;98858.28;8311792;28;20225;-68
2022/12/19 10:39:03;;;;;;;40.97;26.73;;;;;;;2.08;62.62;98877.34;8312074;28;20233;-68
2022/12/19 10:43:12;;;;;;;44.13;26.67;;;;;;;1.73;62.13;98885.66;8311671;28;20433;-68
2022/12/19 10:47:27;;;;;;;44.47;28.13;;;;;;;1.21;64.48;98865.75;8311731;28;20333;-68
2022/12/19 10:51:31;;;;;;;48.07;27.83;;;;;;;1.99;62.59;98867.06;8311455;28;20248;-68
2022/12/19 10:55:41;;;;;;;44.73;27.80;;;;;;;1.56;63.19;98860.91;8311643;28;20245;-68
2022/12/19 10:59:54;;;;;;;41.00;27.07;;;;;;;1.83;62.90;98856.78;8311636;28;20237;-68
2022/12/19 11:04:26;;;;;;;46.47;28.77;;;;;;;1.88;62.47;98852.53;8316383;28;20237;-68
2022/12/19 11:08:31;;;;;;;44.60;28.50;;;;;;;1.94;63.37;98833.81;8283489;28;20230;-68
2022/12/19 11:12:35;;;;;;;42.67;26.93;;;;;;;2.29;62.41;98818.63;8317722;28;20532;-68
2022/12/19 11:16:58;;;;;;;45.30;28.87;;;;;;;2.44;61.42;98814.41;8317295;28;20298;-68
2022/12/19 11:21:27;;;;;;;41.43;26.77;;;;;;;2.18;62.50;98817.75;8317017;28;20242;-68
2022/12/19 11:25:57;;;;;;;43.53;27.67;;;;;;;2.06;62.51;98790.44;8316474;28;20313;-68
2022/12/19 11:30:22;;;;;;;45.00;26.90;;;;;;;1.33;64.01;98770.53;8316438;28;20486;-68
2022/12/19 11:34:49;;;;;;;44.80;28.53;;;;;;;2.25;62.11;98803.28;8316490;28;20309;-68
2022/12/19 11:38:53;;;;;;;44.80;28.03;;;;;;;2.37;61.95;98794.78;8316213;28;20234;-68
2022/12/19 11:42:59;;;;;;;44.43;28.53;;;;;;;1.45;63.69;98734.91;8315830;28;20234;-68
2022/12/19 11:47:31;;;;;;;42.30;25.90;;;;;;;2.37;62.43;98797.34;8316464;28;20287;-66
2022/12/19 11:51:39;;;;;;;40.57;26.63;;;;;;;2.39;62.46;98787.97;8315951;28;20234;-67
2022/12/19 11:55:45;;;;;;;42.17;26.97;;;;;;;2.20;63.02;98779.41;8316517;28;20230;-68
2022/12/19 11:59:52;;;;;;;45.87;28.17;;;;;;;2.17;63.03;98774.28;8315966;28;20226;-68
2022/12/19 12:04:05;;;;;;;39.17;25.70;;;;;;;2.60;62.42;98753.91;8315432;28;20234;-69
2022/12/19 12:08:25;;;;;;;41.60;26.63;;;;;;;2.77;61.60;98766.69;8315730;28;20234;-68
2022/12/19 12:12:58;;;;;;;37.97;25.27;;;;;;;2.08;63.04;98749.56;8313933;28;20268;-68
2022/12/19 12:17:42;;;;;;;40.37;26.13;;;;;;;2.21;63.10;98773.44;8314886;28;20360;-67
2022/12/19 12:22:13;;;;;;;42.93;26.20;;;;;;;2.71;62.81;98745.38;8314614;28;20403;-67
2022/12/19 12:26:39;;;;;;;37.60;25.20;;;;;;;2.48;63.77;98741.97;8314873;28;20281;-68
2022/12/19 12:31:09;;;;;;;39.03;25.47;;;;;;;2.66;62.35;98730.88;8314417;28;20308;-68
2022/12/19 12:35:38;;;;;;;41.63;25.90;;;;;;;2.11;64.19;98709.56;8315248;28;20226;-67
2022/12/19 12:40:24;;;;;;;38.50;25.70;;;;;;;2.42;63.73;98724.03;8314552;28;20338;-69
2022/12/19 12:44:27;;;;;;;35.97;23.93;;;;;;;2.91;62.17;98729.13;8315729;28;20233;-68
2022/12/19 12:48:38;;;;;;;40.00;25.67;;;;;;;3.05;62.09;98732.53;8315628;28;20426;-68
2022/12/19 12:52:46;;;;;;;38.20;24.37;;;;;;;2.50;63.58;98710.41;8314503;28;20572;-67
2022/12/19 12:56:49;;;;;;;40.77;19.17;;;;;;;4.31;77.81;98716.59;8313791;28;20234;-67
2022/12/19 13:01:08;;;;;;;39.53;25.73;;;;;;;2.82;63.28;98713.78;8313934;28;20237;-70
2022/12/19 13:05:24;;;;;;;38.73;25.30;;;;;;;2.60;63.31;98672.91;8314866;28;20237;-68
2022/12/19 13:09:29;;;;;;;37.23;24.43;;;;;;;3.11;61.60;98714.59;8315032;28;20230;-68
2022/12/19 13:13:53;;;;;;;37.70;24.47;;;;;;;2.83;62.25;98706.13;8314314;28;20238;-68
2022/12/19 13:18:02;;;;;;;37.93;24.90;;;;;;;3.19;60.87;98699.22;8313906;28;20497;-69
2022/12/19 13:22:23;;;;;;;34.27;23.70;;;;;;;2.84;62.07;98701.88;8314349;28;20241;-68
2022/12/19 13:26:51;;;;;;;33.97;23.60;;;;;;;2.93;61.90;98694.16;8313373;28;20222;-68
2022/12/19 13:31:15;;;;;;;36.77;25.10;;;;;;;2.90;62.29;98696.75;8298874;28;20230;-68
2022/12/19 13:35:35;;;;;;;35.67;24.03;;;;;;;3.13;61.92;98723.13;8313800;28;20226;-69
2022/12/19 13:40:14;;;;;;;34.57;22.00;;;;;;;3.28;60.30;98678.72;8312949;28;20272;-69
2022/12/19 13:44:24;;;;;;;36.87;24.57;;;;;;;3.28;61.30;98708.59;8313684;28;20300;-68
2022/12/19 13:48:30;;;;;;;37.87;24.10;;;;;;;3.01;62.57;98701.81;8313309;28;20552;-67
2022/12/19 13:52:33;;;;;;;37.60;23.77;;;;;;;3.11;62.25;98701.81;8313076;28;20234;-67
2022/12/19 13:56:38;;;;;;;38.17;25.10;;;;;;;2.73;63.62;98699.31;8313053;28;20229;-68
2022/12/19 14:00:43;;;;;;;35.47;24.27;;;;;;;3.25;62.46;98693.25;8312401;28;20225;-67
2022/12/19 14:04:53;;;;;;;35.77;23.90;;;;;;;2.52;64.22;98667.81;8311821;28;20222;-69
2022/12/19 14:09:01;;;;;;;35.47;23.87;;;;;;;3.00;62.94;98687.34;8312352;28;20233;-68
2022/12/19 14:18:21;;;;;;;35.73;23.00;;;;;;;3.21;62.61;98694.94;8312127;28;20332;-68
2022/12/19 14:22:44;;;;;;;35.20;23.53;;;;;;;3.26;62.62;98684.72;8312967;28;20489;-67
2022/12/19 14:26:49;;;;;;;34.83;23.00;;;;;;;3.15;62.89;98694.13;8311735;28;20222;-68
2022/12/19 14:31:15;;;;;;;33.17;23.03;;;;;;;3.02;63.07;98650.66;8311281;28;21060;-68
2022/12/19 14:35:24;;;;;;;35.07;27.33;;;;;;;3.74;60.90;98700.72;8310286;28;20432;-67
2022/12/19 14:39:48;;;;;;;32.00;21.47;;;;;;;3.65;61.72;98691.34;8318952;28;20452;-67
2022/12/19 14:43:54;;;;;;;38.00;23.33;;;;;;;3.21;63.07;98681.31;8318578;28;20242;-66
2022/12/19 14:48:28;;;;;;;36.33;22.47;;;;;;;3.42;62.77;98685.50;8318545;28;20221;-68
2022/12/19 14:53:06;;;;;;;37.47;23.47;;;;;;;3.50;62.62;98669.25;8318467;28;20241;-68
2022/12/19 14:57:30;;;;;;;34.67;23.20;;;;;;;2.90;63.81;98651.53;8317429;28;20311;-67
2022/12/19 15:01:54;;;;;;;31.20;21.10;;;;;;;3.38;63.25;98683.81;8317102;28;20237;-66
2022/12/19 15:06:04;;;;;;;33.00;22.23;;;;;;;3.24;63.15;98677.03;8317597;28;20544;-66
2022/12/19 15:10:30;;;;;;;32.57;21.33;;;;;;;3.42;62.99;98686.34;8318013;28;20467;-66
2022/12/19 15:15:02;;;;;;;31.80;21.77;;;;;;;3.11;63.88;98678.78;8316672;28;20245;-66
2022/12/19 15:19:12;;;;;;;32.13;21.13;;;;;;;3.14;64.84;98680.47;8317515;28;20230;-66
2022/12/19 15:23:15;;;;;;;33.67;22.20;;;;;;;3.07;64.51;98676.25;8317495;28;20230;-65
2022/12/19 15:27:25;;;;;;;32.67;22.07;;;;;;;3.28;63.46;98677.88;8317431;28;20487;-66
2022/12/19 15:31:33;;;;;;;32.67;22.00;;;;;;;3.39;63.22;98673.56;8316952;28;20229;-66
2022/12/19 15:35:36;;;;;;;32.40;22.20;;;;;;;3.05;64.45;98685.63;8317280;28;20231;-66
2022/12/19 15:39:40;;;;;;;32.93;22.30;;;;;;;3.39;63.33;98685.50;8317420;28;20560;-66
2022/12/19 15:43:44;;;;;;;32.23;21.27;;;;;;;2.86;64.76;98666.91;8316890;28;20234;-66
2022/12/19 15:48:11;;;;;;;31.58;25.30;;;;;;;3.64;62.29;98678.59;8315665;28;20499;-67
2022/12/19 15:52:17;;;;;;;32.53;23.20;;;;;;;3.13;64.22;98642.94;8317049;28;20230;-66
2022/12/19 15:56:25;;;;;;;33.07;22.30;;;;;;;3.19;64.28;98667.66;8316648;28;20222;-66
2022/12/19 16:00:32;;;;;;;35.77;22.53;;;;;;;3.09;64.92;98649.78;8316097;28;20380;-67
2022/12/19 16:04:35;;;;;;;30.53;20.70;;;;;;;3.51;63.38;98649.63;8316416;28;20241;-66
2022/12/19 16:08:39;;;;;;;34.13;22.13;;;;;;;3.31;63.79;98659.94;8316339;28;20289;-67
2022/12/19 16:12:44;;;;;;;32.50;21.13;;;;;;;2.96;64.70;98655.78;8315621;28;20238;-66
2022/12/19 16:16:51;;;;;;;35.20;25.27;;;;;;;2.67;66.21;98638.81;8315301;28;20421;-67
2022/12/19 16:20:56;;;;;;;34.20;22.57;;;;;;;3.04;65.54;98650.66;8315178;28;20288;-66
2022/12/19 16:24:59;;;;;;;32.07;20.53;;;;;;;3.38;64.35;98642.84;8315531;28;20241;-66
2022/12/19 16:29:02;;;;;;;32.80;22.20;;;;;;;2.24;65.31;98554.50;8315416;28;20428;-66
2022/12/19 16:33:16;;;;;;;34.63;22.70;;;;;;;2.51;66.21;98626.88;8314815;28;20261;-66
2022/12/19 16:37:19;;;;;;;32.10;21.57;;;;;;;3.12;65.15;98629.31;8314885;28;20226;-67
2022/12/19 16:41:23;;;;;;;33.87;22.07;;;;;;;2.99;65.14;98625.09;8314731;28;20547;-67
2022/12/19 16:45:26;;;;;;;38.43;23.40;;;;;;;2.96;65.44;98637.88;8314166;28;20536;-67
2022/12/19 16:49:30;;;;;;;38.10;23.57;;;;;;;2.77;65.40;98624.28;8314720;28;20222;-67
2022/12/19 16:53:33;;;;;;;32.20;22.43;;;;;;;2.98;65.01;98619.97;8314262;28;20234;-67
2022/12/19 16:57:36;;;;;;;34.80;23.23;;;;;;;3.11;64.18;98601.16;8314220;28;20230;-68
2022/12/19 17:01:39;;;;;;;35.10;22.77;;;;;;;3.00;65.16;98610.56;8313305;28;20522;-68
2022/12/19 17:05:44;;;;;;;37.60;23.57;;;;;;;2.77;65.16;98587.63;8313535;28;20250;-67
2022/12/19 17:09:46;;;;;;;34.93;22.30;;;;;;;2.95;64.65;98602.91;8313961;28;20345;-67
2022/12/19 17:13:54;;;;;;;36.53;23.47;;;;;;;2.89;64.51;98605.47;8313402;28;20234;-67
2022/12/19 17:17:59;;;;;;;34.13;21.87;;;;;;;3.43;63.94;98606.13;8313057;28;20230;-67
2022/12/19 17:22:10;;;;;;;33.57;22.53;;;;;;;3.15;64.27;98617.34;8313486;28;20234;-67
2022/12/19 17:26:14;;;;;;;33.67;22.20;;;;;;;3.10;63.96;98586.63;8313419;28;20234;-67
2022/12/19 17:30:20;;;;;;;37.30;24.30;;;;;;;3.01;64.46;98612.25;8313103;28;20222;-67
2022/12/19 17:34:26;;;;;;;34.53;23.63;;;;;;;2.89;65.45;98616.59;8312910;28;20252;-65
2022/12/19 17:38:31;;;;;;;34.63;22.33;;;;;;;3.19;64.90;98590.88;8312854;28;20230;-67
2022/12/19 17:42:35;;;;;;;33.77;22.90;;;;;;;3.33;64.47;98612.13;8311620;28;20237;-67
2022/12/19 17:46:39;;;;;;;38.90;23.63;;;;;;;3.12;64.55;98607.97;8311128;28;20283;-67
2022/12/19 17:50:42;;;;;;;33.23;23.23;;;;;;;3.35;64.10;98591.63;8311258;28;20521;-67
2022/12/19 17:54:47;;;;;;;35.30;22.60;;;;;;;3.00;64.65;98608.00;8309853;28;20294;-67
2022/12/19 17:58:49;;;;;;;34.17;22.63;;;;;;;2.63;64.70;98529.69;8312348;28;20234;-67
2022/12/19 18:02:54;;;;;;;36.00;23.00;;;;;;;2.81;65.95;98610.63;8310662;28;20226;-68
2022/12/19 18:06:57;;;;;;;32.90;22.17;;;;;;;3.15;64.69;98612.22;8310908;28;20230;-67
2022/12/19 18:11:03;;;;;;;33.40;23.27;;;;;;;3.31;63.77;98622.41;8309854;28;20226;-67
2022/12/19 18:15:07;;;;;;;36.00;23.20;;;;;;;2.71;65.58;98601.28;8310677;28;20230;-68
2022/12/19 18:19:16;;;;;;;35.37;23.70;;;;;;;2.97;65.24;98618.25;8310403;28;20230;-67
2022/12/19 18:23:20;;;;;;;35.77;23.60;;;;;;;3.18;63.79;98625.88;8310953;28;20238;-68
2022/12/19 18:27:24;;;;;;;34.77;22.87;;;;;;;3.20;64.38;98631.84;8310728;28;20260;-68
2022/12/19 18:31:27;;;;;;;35.77;23.60;;;;;;;3.15;64.90;98631.00;8310878;28;20226;-67
2022/12/19 18:35:34;;;;;;;35.00;23.57;;;;;;;3.07;64.60;98636.13;8310372;28;20465;-68
2022/12/19 18:39:37;;;;;;;33.30;23.17;;;;;;;2.99;64.55;98609.72;8310465;28;20249;-67
2022/12/19 18:43:42;;;;;;;35.17;22.90;;;;;;;2.93;64.79;98625.97;8272908;28;1111715;-70
2022/12/19 18:47:46;;;;;;;37.17;23.17;;;;;;;3.18;64.31;98637.78;8311773;28;20230;-68
2022/12/19 18:51:53;;;;;;;37.93;23.50;;;;;;;3.08;63.89;98619.06;8311246;28;20288;-69
2022/12/19 18:55:56;;;;;;;33.27;22.87;;;;;;;2.76;65.54;98642.19;8311758;28;20237;-68
2022/12/19 19:00:00;;;;;;;36.88;29.55;;;;;;;3.05;64.55;98648.09;8309485;28;20412;-68
2022/12/19 19:04:03;;;;;;;35.00;23.77;;;;;;;2.93;64.17;98654.09;8311300;28;20333;-68
2022/12/19 19:08:14;;;;;;;34.03;27.55;;;;;;;3.27;63.17;98635.19;8310473;28;20600;-67
2022/12/19 19:12:17;;;;;;;34.17;22.73;;;;;;;4.63;70.91;98643.66;8311389;28;20222;-67
2022/12/19 19:16:24;;;;;;;33.70;22.97;;;;;;;5.03;59.66;98640.69;8310897;28;20234;-66
2022/12/19 19:20:27;;;;;;;32.83;26.85;;;;;;;4.01;59.47;98556.16;8309357;28;20483;-66
2022/12/19 19:24:30;;;;;;;34.43;23.77;;;;;;;3.30;62.85;98625.81;8315573;28;20536;-67
2022/12/19 19:28:36;;;;;;;33.67;24.33;;;;;;;3.23;63.14;98603.66;8317172;28;20241;-67
2022/12/19 19:32:45;;;;;;;36.97;24.17;;;;;;;2.82;64.61;98599.56;8317067;28;20293;-64
2022/12/19 19:36:52;;;;;;;35.70;24.17;;;;;;;2.76;64.41;98616.59;8316497;28;20226;-66